sensor_id;sensor_type;location;lat;lon;timestamp;P1;durP1;ratioP1;P2;durP2;ratioP2
70477;SDS011;57956;53.362;-1.518;2022-11-12T00:01:07;6.33;;;1.67;;
70477;SDS011;57956;53.362;-1.518;2022-11-12T00:03:33;4.57;;;1.33;;
70477;SDS011;57956;53.362;-1.518;2022-11-12T00:05:58;3.70;;;1.23;;
70477;SDS011;57956;53.362;-1.518;2022-11-12T00:08:23;4.00;;;1.13;;
70477;SDS011;57956;53.362;-1.518;2022-11-12T00:10:49;4.10;;;1.30;;
70477;SDS011;57956;53.362;-1.518;2022-11-12T00:13:14;6.17;;;2.13;;
70477;SDS011;57956;53.362;-1.518;2022-11-12T00:15:39;3.40;;;1.03;;
70477;SDS011;57956;53.362;-1.518;2022-11-12T00:18:05;6.17;;;1.37;;
70477;SDS011;57956;53.362;-1.518;2022-11-12T00:20:31;2.90;;;1.02;;
70477;SDS011;57956;53.362;-1.518;2022-11-12T00:22:57;5.67;;;1.10;;
70477;SDS011;57956;53.362;-1.518;2022-11-12T00:25:22;5.00;;;1.63;;
70477;SDS011;57956;53.362;-1.518;2022-11-12T00:27:47;5.07;;;1.20;;
70477;SDS011;57956;53.362;-1.518;2022-11-12T00:30:12;5.40;;;0.97;;
70477;SDS011;57956;53.362;-1.518;2022-11-12T00:32:37;6.20;;;1.13;;
70477;SDS011;57956;53.362;-1.518;2022-11-12T00:35:03;6.17;;;1.13;;
70477;SDS011;57956;53.362;-1.518;2022-11-12T00:37:28;3.90;;;1.33;;
70477;SDS011;57956;53.362;-1.518;2022-11-12T00:39:54;6.20;;;1.37;;
70477;SDS011;57956;53.362;-1.518;2022-11-12T00:42:19;3.13;;;0.63;;
70477;SDS011;57956;53.362;-1.518;2022-11-12T00:44:44;5.30;;;1.17;;
70477;SDS011;57956;53.362;-1.518;2022-11-12T00:47:10;5.40;;;1.00;;
70477;SDS011;57956;53.362;-1.518;2022-11-12T00:49:35;5.13;;;1.13;;
70477;SDS011;57956;53.362;-1.518;2022-11-12T00:52:00;6.33;;;1.83;;
70477;SDS011;57956;53.362;-1.518;2022-11-12T00:54:25;4.40;;;1.40;;
70477;SDS011;57956;53.362;-1.518;2022-11-12T00:56:51;4.57;;;1.10;;
70477;SDS011;57956;53.362;-1.518;2022-11-12T00:59:16;5.00;;;0.90;;
70477;SDS011;57956;53.362;-1.518;2022-11-12T01:01:41;3.20;;;1.10;;
70477;SDS011;57956;53.362;-1.518;2022-11-12T01:04:07;3.10;;;0.77;;
70477;SDS011;57956;53.362;-1.518;2022-11-12T01:06:32;3.50;;;1.00;;
70477;SDS011;57956;53.362;-1.518;2022-11-12T01:08:58;5.07;;;1.50;;
70477;SDS011;57956;53.362;-1.518;2022-11-12T01:11:25;5.47;;;1.30;;
70477;SDS011;57956;53.362;-1.518;2022-11-12T01:13:57;5.60;;;1.50;;
70477;SDS011;57956;53.362;-1.518;2022-11-12T01:16:24;3.03;;;0.77;;
70477;SDS011;57956;53.362;-1.518;2022-11-12T01:18:53;5.07;;;1.33;;
70477;SDS011;57956;53.362;-1.518;2022-11-12T01:21:19;4.43;;;1.08;;
70477;SDS011;57956;53.362;-1.518;2022-11-12T01:23:44;3.90;;;1.23;;
70477;SDS011;57956;53.362;-1.518;2022-11-12T01:26:11;3.55;;;1.30;;
70477;SDS011;57956;53.362;-1.518;2022-11-12T01:28:37;3.33;;;1.13;;
70477;SDS011;57956;53.362;-1.518;2022-11-12T01:31:10;3.28;;;0.90;;
70477;SDS011;57956;53.362;-1.518;2022-11-12T01:33:35;4.60;;;1.15;;
70477;SDS011;57956;53.362;-1.518;2022-11-12T01:36:01;5.53;;;1.13;;
70477;SDS011;57956;53.362;-1.518;2022-11-12T01:38:26;4.27;;;1.07;;
70477;SDS011;57956;53.362;-1.518;2022-11-12T01:40:51;3.27;;;1.20;;
70477;SDS011;57956;53.362;-1.518;2022-11-12T01:43:17;4.20;;;1.27;;
70477;SDS011;57956;53.362;-1.518;2022-11-12T01:45:43;5.18;;;2.13;;
70477;SDS011;57956;53.362;-1.518;2022-11-12T01:48:19;9.77;;;1.92;;
70477;SDS011;57956;53.362;-1.518;2022-11-12T01:50:47;4.25;;;1.25;;
70477;SDS011;57956;53.362;-1.518;2022-11-12T01:53:13;3.70;;;1.23;;
70477;SDS011;57956;53.362;-1.518;2022-11-12T01:55:38;4.70;;;1.67;;
70477;SDS011;57956;53.362;-1.518;2022-11-12T02:00:28;3.87;;;1.40;;
70477;SDS011;57956;53.362;-1.518;2022-11-12T02:02:54;4.77;;;1.73;;
70477;SDS011;57956;53.362;-1.518;2022-11-12T02:05:21;8.00;;;0.97;;
70477;SDS011;57956;53.362;-1.518;2022-11-12T02:07:47;5.65;;;1.83;;
70477;SDS011;57956;53.362;-1.518;2022-11-12T02:10:13;7.73;;;1.40;;
70477;SDS011;57956;53.362;-1.518;2022-11-12T02:12:39;6.00;;;1.50;;
70477;SDS011;57956;53.362;-1.518;2022-11-12T02:15:22;7.30;;;1.50;;
70477;SDS011;57956;53.362;-1.518;2022-11-12T02:17:48;4.78;;;1.77;;
70477;SDS011;57956;53.362;-1.518;2022-11-12T02:20:14;7.87;;;1.47;;
70477;SDS011;57956;53.362;-1.518;2022-11-12T02:22:39;5.53;;;1.43;;
70477;SDS011;57956;53.362;-1.518;2022-11-12T02:25:05;9.30;;;1.17;;
70477;SDS011;57956;53.362;-1.518;2022-11-12T02:27:30;4.47;;;1.33;;
70477;SDS011;57956;53.362;-1.518;2022-11-12T02:29:55;4.33;;;1.50;;
70477;SDS011;57956;53.362;-1.518;2022-11-12T02:32:21;6.47;;;1.50;;
70477;SDS011;57956;53.362;-1.518;2022-11-12T02:34:46;5.73;;;1.57;;
70477;SDS011;57956;53.362;-1.518;2022-11-12T02:37:11;4.93;;;1.87;;
70477;SDS011;57956;53.362;-1.518;2022-11-12T02:39:36;6.77;;;2.30;;
70477;SDS011;57956;53.362;-1.518;2022-11-12T02:42:02;5.57;;;1.57;;
70477;SDS011;57956;53.362;-1.518;2022-11-12T02:44:27;5.13;;;1.55;;
70477;SDS011;57956;53.362;-1.518;2022-11-12T02:46:53;8.47;;;2.07;;
70477;SDS011;57956;53.362;-1.518;2022-11-12T02:49:18;6.70;;;1.63;;
70477;SDS011;57956;53.362;-1.518;2022-11-12T02:51:43;3.33;;;0.87;;
70477;SDS011;57956;53.362;-1.518;2022-11-12T02:54:09;6.68;;;1.90;;
70477;SDS011;57956;53.362;-1.518;2022-11-12T02:56:34;4.60;;;1.17;;
70477;SDS011;57956;53.362;-1.518;2022-11-12T02:59:00;4.17;;;1.37;;
70477;SDS011;57956;53.362;-1.518;2022-11-12T03:01:25;4.60;;;1.37;;
70477;SDS011;57956;53.362;-1.518;2022-11-12T03:03:50;9.90;;;1.43;;
70477;SDS011;57956;53.362;-1.518;2022-11-12T03:06:16;4.10;;;1.30;;
70477;SDS011;57956;53.362;-1.518;2022-11-12T03:08:41;4.97;;;1.53;;
70477;SDS011;57956;53.362;-1.518;2022-11-12T03:11:10;3.73;;;0.77;;
70477;SDS011;57956;53.362;-1.518;2022-11-12T03:13:36;4.47;;;1.25;;
70477;SDS011;57956;53.362;-1.518;2022-11-12T03:16:01;7.38;;;2.50;;
70477;SDS011;57956;53.362;-1.518;2022-11-12T03:18:26;5.47;;;1.27;;
70477;SDS011;57956;53.362;-1.518;2022-11-12T03:20:51;5.17;;;1.67;;
70477;SDS011;57956;53.362;-1.518;2022-11-12T03:23:17;4.30;;;1.17;;
70477;SDS011;57956;53.362;-1.518;2022-11-12T03:25:42;4.40;;;1.57;;
70477;SDS011;57956;53.362;-1.518;2022-11-12T03:28:08;5.50;;;1.30;;
70477;SDS011;57956;53.362;-1.518;2022-11-12T03:30:37;7.63;;;1.60;;
70477;SDS011;57956;53.362;-1.518;2022-11-12T03:33:03;4.05;;;1.05;;
70477;SDS011;57956;53.362;-1.518;2022-11-12T03:35:29;5.40;;;1.55;;
70477;SDS011;57956;53.362;-1.518;2022-11-12T03:37:54;4.13;;;1.17;;
70477;SDS011;57956;53.362;-1.518;2022-11-12T03:40:19;5.13;;;1.27;;
70477;SDS011;57956;53.362;-1.518;2022-11-12T03:42:48;4.17;;;1.60;;
70477;SDS011;57956;53.362;-1.518;2022-11-12T03:45:14;11.93;;;1.55;;
70477;SDS011;57956;53.362;-1.518;2022-11-12T03:47:43;4.57;;;1.42;;
70477;SDS011;57956;53.362;-1.518;2022-11-12T03:50:09;4.93;;;1.10;;
70477;SDS011;57956;53.362;-1.518;2022-11-12T03:52:35;5.28;;;1.52;;
70477;SDS011;57956;53.362;-1.518;2022-11-12T03:55:00;4.63;;;1.37;;
70477;SDS011;57956;53.362;-1.518;2022-11-12T03:57:25;3.77;;;0.93;;
70477;SDS011;57956;53.362;-1.518;2022-11-12T03:59:51;4.87;;;1.30;;
70477;SDS011;57956;53.362;-1.518;2022-11-12T04:02:16;4.70;;;1.17;;
70477;SDS011;57956;53.362;-1.518;2022-11-12T04:04:41;4.87;;;1.00;;
70477;SDS011;57956;53.362;-1.518;2022-11-12T04:07:25;5.45;;;0.90;;
70477;SDS011;57956;53.362;-1.518;2022-11-12T04:10:09;5.07;;;1.38;;
70477;SDS011;57956;53.362;-1.518;2022-11-12T04:12:34;5.20;;;1.40;;
70477;SDS011;57956;53.362;-1.518;2022-11-12T04:15:18;5.60;;;1.13;;
70477;SDS011;57956;53.362;-1.518;2022-11-12T04:17:43;4.80;;;1.03;;
70477;SDS011;57956;53.362;-1.518;2022-11-12T04:20:27;5.63;;;1.23;;
70477;SDS011;57956;53.362;-1.518;2022-11-12T04:23:11;3.22;;;1.65;;
70477;SDS011;57956;53.362;-1.518;2022-11-12T04:25:37;4.73;;;1.60;;
70477;SDS011;57956;53.362;-1.518;2022-11-12T04:28:21;4.10;;;0.95;;
70477;SDS011;57956;53.362;-1.518;2022-11-12T04:30:46;3.93;;;0.83;;
70477;SDS011;57956;53.362;-1.518;2022-11-12T04:33:12;3.77;;;0.90;;
70477;SDS011;57956;53.362;-1.518;2022-11-12T04:35:37;4.30;;;1.43;;
70477;SDS011;57956;53.362;-1.518;2022-11-12T04:38:02;3.40;;;0.83;;
70477;SDS011;57956;53.362;-1.518;2022-11-12T04:40:27;4.70;;;1.30;;
70477;SDS011;57956;53.362;-1.518;2022-11-12T04:43:19;4.68;;;0.95;;
70477;SDS011;57956;53.362;-1.518;2022-11-12T04:46:03;3.58;;;0.98;;
70477;SDS011;57956;53.362;-1.518;2022-11-12T04:48:29;4.60;;;0.88;;
70477;SDS011;57956;53.362;-1.518;2022-11-12T04:51:01;3.17;;;0.97;;
70477;SDS011;57956;53.362;-1.518;2022-11-12T04:53:27;3.15;;;0.88;;
70477;SDS011;57956;53.362;-1.518;2022-11-12T04:55:53;4.13;;;1.05;;
70477;SDS011;57956;53.362;-1.518;2022-11-12T04:58:19;4.97;;;0.97;;
70477;SDS011;57956;53.362;-1.518;2022-11-12T05:00:44;3.50;;;0.97;;
70477;SDS011;57956;53.362;-1.518;2022-11-12T05:03:10;3.27;;;0.87;;
70477;SDS011;57956;53.362;-1.518;2022-11-12T05:05:35;6.37;;;1.00;;
70477;SDS011;57956;53.362;-1.518;2022-11-12T05:08:00;3.57;;;0.97;;
70477;SDS011;57956;53.362;-1.518;2022-11-12T05:10:26;5.80;;;1.20;;
70477;SDS011;57956;53.362;-1.518;2022-11-12T05:12:51;6.37;;;1.30;;
70477;SDS011;57956;53.362;-1.518;2022-11-12T05:15:16;4.07;;;1.10;;
70477;SDS011;57956;53.362;-1.518;2022-11-12T05:17:42;4.00;;;0.90;;
70477;SDS011;57956;53.362;-1.518;2022-11-12T05:20:08;5.00;;;1.58;;
70477;SDS011;57956;53.362;-1.518;2022-11-12T05:22:34;3.37;;;0.73;;
70477;SDS011;57956;53.362;-1.518;2022-11-12T05:24:59;3.30;;;0.82;;
70477;SDS011;57956;53.362;-1.518;2022-11-12T05:27:24;3.93;;;0.87;;
70477;SDS011;57956;53.362;-1.518;2022-11-12T05:29:49;5.07;;;1.00;;
70477;SDS011;57956;53.362;-1.518;2022-11-12T05:32:15;5.07;;;1.00;;
70477;SDS011;57956;53.362;-1.518;2022-11-12T05:34:41;4.90;;;2.67;;
70477;SDS011;57956;53.362;-1.518;2022-11-12T05:37:06;2.73;;;0.70;;
70477;SDS011;57956;53.362;-1.518;2022-11-12T05:39:32;2.90;;;0.65;;
70477;SDS011;57956;53.362;-1.518;2022-11-12T05:41:57;2.23;;;0.57;;
70477;SDS011;57956;53.362;-1.518;2022-11-12T05:44:22;2.93;;;0.70;;
70477;SDS011;57956;53.362;-1.518;2022-11-12T05:46:48;3.53;;;0.60;;
70477;SDS011;57956;53.362;-1.518;2022-11-12T05:49:14;7.25;;;0.60;;
70477;SDS011;57956;53.362;-1.518;2022-11-12T05:51:40;3.85;;;0.82;;
70477;SDS011;57956;53.362;-1.518;2022-11-12T05:54:05;3.30;;;0.53;;
70477;SDS011;57956;53.362;-1.518;2022-11-12T05:56:30;3.23;;;0.50;;
70477;SDS011;57956;53.362;-1.518;2022-11-12T05:58:56;3.33;;;0.83;;
70477;SDS011;57956;53.362;-1.518;2022-11-12T06:01:21;2.60;;;0.60;;
70477;SDS011;57956;53.362;-1.518;2022-11-12T06:03:47;3.93;;;0.93;;
70477;SDS011;57956;53.362;-1.518;2022-11-12T06:06:12;2.47;;;0.87;;
70477;SDS011;57956;53.362;-1.518;2022-11-12T06:08:38;5.05;;;0.68;;
70477;SDS011;57956;53.362;-1.518;2022-11-12T06:11:03;3.40;;;0.87;;
70477;SDS011;57956;53.362;-1.518;2022-11-12T06:13:28;3.40;;;1.17;;
70477;SDS011;57956;53.362;-1.518;2022-11-12T06:15:54;2.77;;;0.40;;
70477;SDS011;57956;53.362;-1.518;2022-11-12T06:18:20;4.55;;;1.08;;
70477;SDS011;57956;53.362;-1.518;2022-11-12T06:20:46;2.85;;;0.90;;
70477;SDS011;57956;53.362;-1.518;2022-11-12T06:23:31;3.77;;;1.07;;
70477;SDS011;57956;53.362;-1.518;2022-11-12T06:25:57;2.22;;;0.40;;
70477;SDS011;57956;53.362;-1.518;2022-11-12T06:28:22;5.37;;;0.70;;
70477;SDS011;57956;53.362;-1.518;2022-11-12T06:30:47;2.73;;;0.80;;
70477;SDS011;57956;53.362;-1.518;2022-11-12T06:33:13;3.07;;;0.40;;
70477;SDS011;57956;53.362;-1.518;2022-11-12T06:35:38;2.85;;;0.47;;
70477;SDS011;57956;53.362;-1.518;2022-11-12T06:38:03;2.53;;;0.50;;
70477;SDS011;57956;53.362;-1.518;2022-11-12T06:40:28;3.73;;;0.87;;
70477;SDS011;57956;53.362;-1.518;2022-11-12T06:42:57;3.17;;;0.77;;
70477;SDS011;57956;53.362;-1.518;2022-11-12T06:45:23;3.30;;;0.90;;
70477;SDS011;57956;53.362;-1.518;2022-11-12T06:47:48;2.30;;;0.40;;
70477;SDS011;57956;53.362;-1.518;2022-11-12T06:50:13;2.60;;;0.73;;
70477;SDS011;57956;53.362;-1.518;2022-11-12T06:52:39;2.30;;;0.50;;
70477;SDS011;57956;53.362;-1.518;2022-11-12T06:55:04;6.32;;;0.70;;
70477;SDS011;57956;53.362;-1.518;2022-11-12T06:57:29;2.87;;;0.50;;
70477;SDS011;57956;53.362;-1.518;2022-11-12T06:59:55;2.43;;;0.60;;
70477;SDS011;57956;53.362;-1.518;2022-11-12T07:02:20;2.43;;;0.60;;
70477;SDS011;57956;53.362;-1.518;2022-11-12T07:04:46;2.38;;;0.40;;
70477;SDS011;57956;53.362;-1.518;2022-11-12T07:07:11;3.27;;;0.80;;
70477;SDS011;57956;53.362;-1.518;2022-11-12T07:09:36;3.43;;;1.10;;
70477;SDS011;57956;53.362;-1.518;2022-11-12T07:12:01;2.27;;;0.40;;
70477;SDS011;57956;53.362;-1.518;2022-11-12T07:14:26;2.60;;;1.00;;
70477;SDS011;57956;53.362;-1.518;2022-11-12T07:16:52;2.50;;;0.37;;
70477;SDS011;57956;53.362;-1.518;2022-11-12T07:19:17;1.53;;;0.20;;
70477;SDS011;57956;53.362;-1.518;2022-11-12T07:21:42;2.53;;;0.47;;
70477;SDS011;57956;53.362;-1.518;2022-11-12T07:24:08;3.00;;;0.70;;
70477;SDS011;57956;53.362;-1.518;2022-11-12T07:26:33;2.50;;;0.60;;
70477;SDS011;57956;53.362;-1.518;2022-11-12T07:28:58;2.40;;;0.40;;
70477;SDS011;57956;53.362;-1.518;2022-11-12T07:31:24;3.17;;;0.50;;
70477;SDS011;57956;53.362;-1.518;2022-11-12T07:33:50;2.13;;;0.30;;
70477;SDS011;57956;53.362;-1.518;2022-11-12T07:36:16;6.93;;;1.33;;
70477;SDS011;57956;53.362;-1.518;2022-11-12T07:38:41;2.42;;;0.47;;
70477;SDS011;57956;53.362;-1.518;2022-11-12T07:41:17;2.47;;;0.47;;
70477;SDS011;57956;53.362;-1.518;2022-11-12T07:43:44;4.78;;;0.70;;
70477;SDS011;57956;53.362;-1.518;2022-11-12T07:46:10;3.15;;;0.65;;
70477;SDS011;57956;53.362;-1.518;2022-11-12T07:48:36;2.55;;;0.40;;
70477;SDS011;57956;53.362;-1.518;2022-11-12T07:51:03;4.37;;;0.60;;
70477;SDS011;57956;53.362;-1.518;2022-11-12T07:53:28;3.75;;;0.80;;
70477;SDS011;57956;53.362;-1.518;2022-11-12T07:55:58;2.47;;;0.80;;
70477;SDS011;57956;53.362;-1.518;2022-11-12T07:58:24;2.43;;;0.53;;
70477;SDS011;57956;53.362;-1.518;2022-11-12T08:00:49;2.92;;;0.50;;
70477;SDS011;57956;53.362;-1.518;2022-11-12T08:03:15;3.57;;;1.00;;
70477;SDS011;57956;53.362;-1.518;2022-11-12T08:05:40;3.20;;;0.40;;
70477;SDS011;57956;53.362;-1.518;2022-11-12T08:08:06;2.43;;;0.70;;
70477;SDS011;57956;53.362;-1.518;2022-11-12T08:10:31;2.57;;;0.53;;
70477;SDS011;57956;53.362;-1.518;2022-11-12T08:12:56;2.90;;;0.40;;
70477;SDS011;57956;53.362;-1.518;2022-11-12T08:15:22;3.22;;;0.80;;
70477;SDS011;57956;53.362;-1.518;2022-11-12T08:17:47;2.83;;;0.40;;
70477;SDS011;57956;53.362;-1.518;2022-11-12T08:20:12;1.77;;;0.30;;
70477;SDS011;57956;53.362;-1.518;2022-11-12T08:22:38;2.97;;;0.70;;
70477;SDS011;57956;53.362;-1.518;2022-11-12T08:25:03;2.40;;;0.50;;
70477;SDS011;57956;53.362;-1.518;2022-11-12T08:27:29;2.43;;;0.50;;
70477;SDS011;57956;53.362;-1.518;2022-11-12T08:29:54;2.47;;;0.33;;
70477;SDS011;57956;53.362;-1.518;2022-11-12T08:32:19;2.90;;;0.50;;
70477;SDS011;57956;53.362;-1.518;2022-11-12T08:34:45;3.08;;;0.38;;
70477;SDS011;57956;53.362;-1.518;2022-11-12T08:37:10;1.97;;;0.40;;
70477;SDS011;57956;53.362;-1.518;2022-11-12T08:39:37;2.47;;;0.60;;
70477;SDS011;57956;53.362;-1.518;2022-11-12T08:42:02;2.97;;;0.70;;
70477;SDS011;57956;53.362;-1.518;2022-11-12T08:44:27;2.00;;;0.30;;
70477;SDS011;57956;53.362;-1.518;2022-11-12T08:46:53;2.80;;;0.70;;
70477;SDS011;57956;53.362;-1.518;2022-11-12T08:49:18;3.27;;;0.50;;
70477;SDS011;57956;53.362;-1.518;2022-11-12T08:51:43;3.30;;;0.97;;
70477;SDS011;57956;53.362;-1.518;2022-11-12T08:54:09;2.23;;;0.43;;
70477;SDS011;57956;53.362;-1.518;2022-11-12T08:56:34;2.40;;;0.53;;
70477;SDS011;57956;53.362;-1.518;2022-11-12T08:58:59;3.23;;;0.83;;
70477;SDS011;57956;53.362;-1.518;2022-11-12T09:01:24;2.92;;;0.70;;
70477;SDS011;57956;53.362;-1.518;2022-11-12T09:03:50;2.97;;;0.60;;
70477;SDS011;57956;53.362;-1.518;2022-11-12T09:06:15;2.37;;;0.63;;
70477;SDS011;57956;53.362;-1.518;2022-11-12T09:08:40;4.67;;;0.70;;
70477;SDS011;57956;53.362;-1.518;2022-11-12T09:11:06;3.07;;;0.60;;
70477;SDS011;57956;53.362;-1.518;2022-11-12T09:13:31;2.67;;;0.60;;
70477;SDS011;57956;53.362;-1.518;2022-11-12T09:16:03;5.30;;;0.60;;
70477;SDS011;57956;53.362;-1.518;2022-11-12T09:18:31;2.50;;;0.50;;
70477;SDS011;57956;53.362;-1.518;2022-11-12T09:21:00;2.22;;;0.50;;
70477;SDS011;57956;53.362;-1.518;2022-11-12T09:23:25;4.20;;;1.10;;
70477;SDS011;57956;53.362;-1.518;2022-11-12T09:25:51;2.35;;;0.50;;
70477;SDS011;57956;53.362;-1.518;2022-11-12T09:28:17;3.30;;;0.80;;
70477;SDS011;57956;53.362;-1.518;2022-11-12T09:30:46;4.05;;;0.65;;
70477;SDS011;57956;53.362;-1.518;2022-11-12T09:33:12;3.37;;;0.73;;
70477;SDS011;57956;53.362;-1.518;2022-11-12T09:35:38;2.95;;;0.80;;
70477;SDS011;57956;53.362;-1.518;2022-11-12T09:38:03;3.13;;;0.47;;
70477;SDS011;57956;53.362;-1.518;2022-11-12T09:40:36;3.07;;;0.70;;
70477;SDS011;57956;53.362;-1.518;2022-11-12T09:43:08;3.72;;;0.50;;
70477;SDS011;57956;53.362;-1.518;2022-11-12T09:45:34;2.83;;;0.50;;
70477;SDS011;57956;53.362;-1.518;2022-11-12T09:48:05;2.97;;;0.63;;
70477;SDS011;57956;53.362;-1.518;2022-11-12T09:50:33;3.03;;;0.68;;
70477;SDS011;57956;53.362;-1.518;2022-11-12T09:53:10;2.50;;;0.60;;
70477;SDS011;57956;53.362;-1.518;2022-11-12T09:55:42;3.50;;;0.60;;
70477;SDS011;57956;53.362;-1.518;2022-11-12T09:58:12;2.17;;;0.40;;
70477;SDS011;57956;53.362;-1.518;2022-11-12T10:00:39;3.97;;;0.65;;
70477;SDS011;57956;53.362;-1.518;2022-11-12T10:05:35;2.77;;;0.27;;
70477;SDS011;57956;53.362;-1.518;2022-11-12T10:10:36;4.23;;;0.67;;
70477;SDS011;57956;53.362;-1.518;2022-11-12T10:13:11;3.23;;;0.77;;
70477;SDS011;57956;53.362;-1.518;2022-11-12T10:23:50;2.92;;;1.25;;
70477;SDS011;57956;53.362;-1.518;2022-11-12T10:26:17;2.97;;;0.40;;
70477;SDS011;57956;53.362;-1.518;2022-11-12T10:28:44;2.05;;;0.90;;
70477;SDS011;57956;53.362;-1.518;2022-11-12T10:31:15;3.05;;;0.55;;
70477;SDS011;57956;53.362;-1.518;2022-11-12T10:33:40;2.95;;;0.85;;
70477;SDS011;57956;53.362;-1.518;2022-11-12T10:38:43;2.53;;;0.57;;
70477;SDS011;57956;53.362;-1.518;2022-11-12T10:41:19;3.72;;;1.00;;
70477;SDS011;57956;53.362;-1.518;2022-11-12T10:43:52;3.10;;;1.03;;
70477;SDS011;57956;53.362;-1.518;2022-11-12T10:46:18;4.20;;;2.05;;
70477;SDS011;57956;53.362;-1.518;2022-11-12T10:48:52;4.40;;;0.82;;
70477;SDS011;57956;53.362;-1.518;2022-11-12T10:51:18;3.42;;;1.00;;
70477;SDS011;57956;53.362;-1.518;2022-11-12T10:53:46;4.28;;;1.25;;
70477;SDS011;57956;53.362;-1.518;2022-11-12T10:56:28;3.37;;;1.13;;
70477;SDS011;57956;53.362;-1.518;2022-11-12T11:01:37;3.88;;;1.30;;
70477;SDS011;57956;53.362;-1.518;2022-11-12T11:04:03;4.03;;;1.37;;
70477;SDS011;57956;53.362;-1.518;2022-11-12T11:06:29;4.18;;;1.02;;
70477;SDS011;57956;53.362;-1.518;2022-11-12T11:09:13;3.50;;;1.07;;
70477;SDS011;57956;53.362;-1.518;2022-11-12T11:11:48;4.72;;;1.35;;
70477;SDS011;57956;53.362;-1.518;2022-11-12T11:19:16;5.67;;;1.60;;
70477;SDS011;57956;53.362;-1.518;2022-11-12T11:32:04;6.20;;;1.63;;
70477;SDS011;57956;53.362;-1.518;2022-11-12T11:34:51;3.83;;;1.92;;
70477;SDS011;57956;53.362;-1.518;2022-11-12T11:37:26;6.30;;;2.97;;
70477;SDS011;57956;53.362;-1.518;2022-11-12T11:42:27;6.32;;;1.70;;
70477;SDS011;57956;53.362;-1.518;2022-11-12T11:47:41;6.18;;;2.50;;
70477;SDS011;57956;53.362;-1.518;2022-11-12T11:50:15;4.90;;;1.45;;
70477;SDS011;57956;53.362;-1.518;2022-11-12T11:57:41;6.95;;;1.85;;
70477;SDS011;57956;53.362;-1.518;2022-11-12T12:10:21;5.27;;;1.50;;
70477;SDS011;57956;53.362;-1.518;2022-11-12T12:18:10;4.72;;;1.80;;
70477;SDS011;57956;53.362;-1.518;2022-11-12T12:23:26;4.93;;;1.87;;
70477;SDS011;57956;53.362;-1.518;2022-11-12T12:25:54;6.00;;;1.70;;
70477;SDS011;57956;53.362;-1.518;2022-11-12T12:31:05;6.68;;;1.90;;
70477;SDS011;57956;53.362;-1.518;2022-11-12T12:36:36;4.80;;;1.97;;
70477;SDS011;57956;53.362;-1.518;2022-11-12T12:39:03;7.07;;;1.88;;
70477;SDS011;57956;53.362;-1.518;2022-11-12T12:43:55;7.67;;;2.93;;
70477;SDS011;57956;53.362;-1.518;2022-11-12T12:46:23;6.97;;;2.47;;
70477;SDS011;57956;53.362;-1.518;2022-11-12T12:48:49;7.80;;;2.83;;
70477;SDS011;57956;53.362;-1.518;2022-11-12T12:51:16;9.73;;;3.97;;
70477;SDS011;57956;53.362;-1.518;2022-11-12T12:53:41;10.15;;;2.85;;
70477;SDS011;57956;53.362;-1.518;2022-11-12T12:58:42;7.13;;;2.88;;
70477;SDS011;57956;53.362;-1.518;2022-11-12T13:15:07;6.50;;;2.15;;
70477;SDS011;57956;53.362;-1.518;2022-11-12T13:17:11;6.90;;;2.13;;
70477;SDS011;57956;53.362;-1.518;2022-11-12T13:32:52;6.90;;;4.43;;
70477;SDS011;57956;53.362;-1.518;2022-11-12T13:43:12;7.27;;;2.47;;
70477;SDS011;57956;53.362;-1.518;2022-11-12T13:48:12;5.55;;;1.52;;
70477;SDS011;57956;53.362;-1.518;2022-11-12T13:50:38;5.63;;;1.30;;
70477;SDS011;57956;53.362;-1.518;2022-11-12T13:53:06;7.47;;;1.75;;
70477;SDS011;57956;53.362;-1.518;2022-11-12T13:55:32;4.17;;;1.47;;
70477;SDS011;57956;53.362;-1.518;2022-11-12T13:57:57;6.47;;;1.63;;
70477;SDS011;57956;53.362;-1.518;2022-11-12T14:02:51;5.50;;;1.60;;
70477;SDS011;57956;53.362;-1.518;2022-11-12T14:05:21;6.22;;;1.45;;
70477;SDS011;57956;53.362;-1.518;2022-11-12T14:21:03;5.28;;;1.75;;
70477;SDS011;57956;53.362;-1.518;2022-11-12T14:23:28;4.40;;;1.17;;
70477;SDS011;57956;53.362;-1.518;2022-11-12T14:25:54;6.70;;;1.93;;
70477;SDS011;57956;53.362;-1.518;2022-11-12T14:28:24;6.70;;;2.10;;
70477;SDS011;57956;53.362;-1.518;2022-11-12T14:30:50;5.68;;;1.83;;
70477;SDS011;57956;53.362;-1.518;2022-11-12T14:33:18;6.60;;;1.83;;
70477;SDS011;57956;53.362;-1.518;2022-11-12T14:35:45;5.60;;;1.70;;
70477;SDS011;57956;53.362;-1.518;2022-11-12T14:38:12;6.47;;;1.67;;
70477;SDS011;57956;53.362;-1.518;2022-11-12T14:46:07;5.47;;;2.22;;
70477;SDS011;57956;53.362;-1.518;2022-11-12T14:48:45;6.27;;;2.07;;
70477;SDS011;57956;53.362;-1.518;2022-11-12T14:51:11;9.50;;;2.67;;
70477;SDS011;57956;53.362;-1.518;2022-11-12T14:53:40;7.68;;;2.20;;
70477;SDS011;57956;53.362;-1.518;2022-11-12T14:56:06;6.72;;;2.63;;
70477;SDS011;57956;53.362;-1.518;2022-11-12T14:58:32;8.25;;;2.33;;
70477;SDS011;57956;53.362;-1.518;2022-11-12T15:00:58;7.40;;;2.83;;
70477;SDS011;57956;53.362;-1.518;2022-11-12T15:03:40;8.45;;;2.50;;
70477;SDS011;57956;53.362;-1.518;2022-11-12T15:06:07;6.13;;;2.13;;
70477;SDS011;57956;53.362;-1.518;2022-11-12T15:08:34;7.63;;;2.20;;
70477;SDS011;57956;53.362;-1.518;2022-11-12T15:13:57;5.85;;;2.08;;
70477;SDS011;57956;53.362;-1.518;2022-11-12T15:16:34;6.25;;;2.10;;
70477;SDS011;57956;53.362;-1.518;2022-11-12T15:21:28;6.95;;;2.58;;
70477;SDS011;57956;53.362;-1.518;2022-11-12T15:26:23;8.83;;;2.70;;
70477;SDS011;57956;53.362;-1.518;2022-11-12T15:29:02;5.75;;;2.42;;
70477;SDS011;57956;53.362;-1.518;2022-11-12T15:31:46;9.00;;;2.60;;
70477;SDS011;57956;53.362;-1.518;2022-11-12T15:36:42;6.95;;;2.10;;
70477;SDS011;57956;53.362;-1.518;2022-11-12T15:39:11;6.03;;;2.60;;
70477;SDS011;57956;53.362;-1.518;2022-11-12T15:41:38;9.48;;;3.40;;
70477;SDS011;57956;53.362;-1.518;2022-11-12T15:44:03;5.93;;;2.07;;
70477;SDS011;57956;53.362;-1.518;2022-11-12T15:46:29;8.00;;;2.95;;
70477;SDS011;57956;53.362;-1.518;2022-11-12T15:48:54;7.77;;;2.93;;
70477;SDS011;57956;53.362;-1.518;2022-11-12T15:51:19;9.63;;;3.13;;
70477;SDS011;57956;53.362;-1.518;2022-11-12T15:53:44;12.83;;;2.53;;
70477;SDS011;57956;53.362;-1.518;2022-11-12T15:56:13;8.33;;;1.90;;
70477;SDS011;57956;53.362;-1.518;2022-11-12T15:58:40;8.85;;;2.72;;
70477;SDS011;57956;53.362;-1.518;2022-11-12T16:01:06;8.80;;;2.47;;
70477;SDS011;57956;53.362;-1.518;2022-11-12T16:03:31;8.47;;;2.87;;
70477;SDS011;57956;53.362;-1.518;2022-11-12T16:05:56;6.33;;;2.43;;
70477;SDS011;57956;53.362;-1.518;2022-11-12T16:08:21;9.13;;;2.57;;
70477;SDS011;57956;53.362;-1.518;2022-11-12T16:10:47;9.35;;;2.47;;
70477;SDS011;57956;53.362;-1.518;2022-11-12T16:13:14;8.97;;;3.30;;
70477;SDS011;57956;53.362;-1.518;2022-11-12T16:15:40;11.48;;;3.97;;
70477;SDS011;57956;53.362;-1.518;2022-11-12T16:18:07;15.03;;;4.70;;
70477;SDS011;57956;53.362;-1.518;2022-11-12T16:20:34;14.38;;;4.65;;
70477;SDS011;57956;53.362;-1.518;2022-11-12T16:23:00;10.20;;;4.40;;
70477;SDS011;57956;53.362;-1.518;2022-11-12T16:25:30;9.37;;;3.80;;
70477;SDS011;57956;53.362;-1.518;2022-11-12T16:27:55;6.78;;;3.20;;
70477;SDS011;57956;53.362;-1.518;2022-11-12T16:30:22;10.88;;;3.65;;
70477;SDS011;57956;53.362;-1.518;2022-11-12T16:32:48;11.43;;;4.32;;
70477;SDS011;57956;53.362;-1.518;2022-11-12T16:35:14;14.13;;;3.93;;
70477;SDS011;57956;53.362;-1.518;2022-11-12T16:37:41;19.45;;;5.47;;
70477;SDS011;57956;53.362;-1.518;2022-11-12T16:40:08;10.13;;;4.30;;
70477;SDS011;57956;53.362;-1.518;2022-11-12T16:42:36;12.63;;;4.75;;
70477;SDS011;57956;53.362;-1.518;2022-11-12T16:45:02;11.23;;;4.20;;
70477;SDS011;57956;53.362;-1.518;2022-11-12T16:47:27;12.10;;;4.87;;
70477;SDS011;57956;53.362;-1.518;2022-11-12T16:49:52;11.10;;;4.43;;
70477;SDS011;57956;53.362;-1.518;2022-11-12T16:52:18;12.57;;;4.27;;
70477;SDS011;57956;53.362;-1.518;2022-11-12T16:54:43;15.13;;;4.40;;
70477;SDS011;57956;53.362;-1.518;2022-11-12T16:57:09;11.67;;;4.53;;